Johnstown, NE

9:47 AM CST on February 27, 2017 (GMT -0600)
Ainsworth Municipal

Weather History for KANW - January, 2012

Change the Weather History Date:

Thursday, January 26, 2012

  Actual Average Record
Temperature  
Mean Temperature 38 °F -  
Max Temperature 46 °F 34 °F 68 °F (2002)
Min Temperature 31 °F 15 °F -5 °F (1997)
Degree Days  
Heating Degree Days 26    
Moisture  
Dew Point 23 °F    
Average Humidity 57    
Maximum Humidity 86    
Minimum Humidity 26    
Precipitation  
Precipitation 0.00 in - - ()
Sea Level Pressure  
Sea Level Pressure 29.95 in    
Wind  
Wind Speed 13 mph (WNW)    
Max Wind Speed 21 mph    
Max Gust Speed 31 mph    
Visibility 10 miles    
Events Rain    
Averages and records for this station are not official NWS values.
T = Trace of Precipitation, MM = Missing Value Source: NWS Daily Summary

Daily Weather History Graph

Daily Weather History Graph

Search for Another Location

Airport or City:

Trip Planner

Search our weather history database for the weather conditions in past years. The results will help you decide how hot, cold, wet, or windy it might be!

Date:

Astronomy

Jan. 26, 2012 Rise Set
Actual Time 8:00 AM CST 5:45 PM CST
Civil Twilight 7:29 AM CST 6:15 PM CST
Nautical Twilight 6:55 AM CST 6:49 PM CST
Astronomical Twilight 6:22 AM CST 7:23 PM CST
Moon 9:22 AM CST (1/26) 9:46 PM CST (1/26)
Length of Visible Light 10h 45m
Length of Day
9h 45m
Waxing Crescent, 12% of the Moon is Illuminated
Jan 26
Waxing Crescent
Jan 30
First Quarter
Feb 7
Full
Feb 14
Last Quarter
Feb 21
New

Hourly Weather History & Observations

Time (CST) Temp. Windchill Dew Point Humidity Pressure Visibility Wind Dir Wind Speed Gust Speed Precip Events Conditions
12:15 AM 41.5 °F 32.4 °F 33.6 °F 73% 29.97 in 7.0 mi NW 20.7 mph 31.1 mph N/A Rain Light Rain
12:35 AM 41.2 °F 33.7 °F 33.3 °F 73% 29.97 in 10.0 mi WNW 13.8 mph 19.6 mph N/A   Overcast
12:55 AM 41.5 °F 33.5 °F 33.4 °F 73% 29.97 in 10.0 mi WNW 16.1 mph 25.3 mph N/A   Overcast
1:15 AM 41.0 °F 33.5 °F 33.8 °F 76% 29.97 in 10.0 mi NW 13.8 mph - N/A   Overcast
1:35 AM 40.6 °F 31.4 °F 34.0 °F 77% 29.98 in 10.0 mi WNW 19.6 mph 27.6 mph N/A   Overcast
1:55 AM 40.1 °F 34.1 °F 33.8 °F 78% 29.96 in 10.0 mi WNW 9.2 mph - N/A   Light Drizzle
2:15 AM 39.4 °F 32.3 °F 33.4 °F 79% 29.97 in 10.0 mi West 11.5 mph - N/A   Overcast
2:35 AM 38.5 °F 31.1 °F 33.1 °F 81% 29.96 in 10.0 mi West 11.5 mph - N/A   Scattered Clouds
2:55 AM 37.2 °F 30.0 °F 32.2 °F 82% 29.97 in 10.0 mi West 10.4 mph - N/A   Clear
3:15 AM 35.8 °F 28.8 °F 31.8 °F 86% 29.97 in 10.0 mi West 9.2 mph - N/A   Clear
3:35 AM 34.7 °F 27.5 °F 30.2 °F 84% 29.97 in 10.0 mi West 9.2 mph - N/A   Clear
3:55 AM 32.9 °F 25.3 °F 28.8 °F 85% 29.96 in 10.0 mi West 9.2 mph - N/A   Clear
4:15 AM 32.4 °F 24.0 °F 28.2 °F 85% 29.96 in 10.0 mi West 10.4 mph - N/A   Clear
4:35 AM 32.5 °F 23.2 °F 27.5 °F 82% 29.96 in 10.0 mi West 12.7 mph - N/A   Clear
4:55 AM 33.3 °F 23.7 °F 27.3 °F 79% 29.96 in 10.0 mi West 13.8 mph - N/A   Clear
5:15 AM 33.1 °F 23.9 °F 26.4 °F 77% 29.96 in 10.0 mi West 12.7 mph - N/A   Clear
5:35 AM 33.4 °F 24.8 °F 25.0 °F 71% 29.97 in 10.0 mi West 11.5 mph - N/A   Clear
5:55 AM 32.5 °F 24.8 °F 24.1 °F 71% 29.97 in 10.0 mi West 9.2 mph - N/A   Clear
6:15 AM 31.6 °F 22.6 °F 23.7 °F 73% 29.97 in 10.0 mi West 11.5 mph - N/A   Clear
6:35 AM 31.5 °F 23.5 °F 23.4 °F 72% 29.98 in 10.0 mi West 9.2 mph - N/A   Clear
6:55 AM 31.1 °F 23.1 °F 23.0 °F 72% 29.99 in 10.0 mi West 9.2 mph - N/A   Clear
7:15 AM 32.0 °F 23.0 °F 23.9 °F 72% 29.98 in 10.0 mi West 11.5 mph 18.4 mph N/A   Clear
7:35 AM 32.4 °F 22.5 °F 23.0 °F 68% 29.98 in 10.0 mi WNW 13.8 mph - N/A   Clear
7:55 AM 32.2 °F 22.7 °F 22.6 °F 68% 29.98 in 10.0 mi WNW 12.7 mph - N/A   Clear
8:15 AM 32.0 °F 22.5 °F 22.6 °F 68% 29.98 in 10.0 mi WNW 12.7 mph - N/A   Clear
8:35 AM 32.2 °F 23.8 °F 22.5 °F 67% 29.99 in 10.0 mi WNW 10.4 mph - N/A   Clear
8:55 AM 32.9 °F 23.7 °F 23.0 °F 67% 29.99 in 10.0 mi WNW 12.7 mph - N/A   Clear
9:15 AM 33.6 °F 24.6 °F 23.0 °F 65% 29.99 in 10.0 mi WNW 12.7 mph - N/A   Clear
9:35 AM 35.2 °F 25.8 °F 23.5 °F 62% 30.00 in 10.0 mi WNW 15.0 mph - N/A   Clear
9:55 AM 36.5 °F 27.8 °F 23.4 °F 59% 29.99 in 10.0 mi WNW 13.8 mph 19.6 mph N/A   Clear
10:15 AM 37.8 °F 28.6 °F 22.8 °F 55% 30.00 in 10.0 mi NW 16.1 mph - N/A   Clear
10:35 AM 39.0 °F 29.9 °F 22.8 °F 52% 30.00 in 10.0 mi NW 17.3 mph 25.3 mph N/A   Clear
10:55 AM 40.6 °F 32.0 °F 23.0 °F 49% 30.01 in 10.0 mi NW 17.3 mph 21.9 mph N/A   Clear
11:15 AM 41.2 °F 33.0 °F 21.2 °F 45% 30.01 in 10.0 mi NW 16.1 mph 25.3 mph N/A   Clear
11:35 AM 41.7 °F 33.1 °F 20.1 °F 42% 30.01 in 10.0 mi NW 18.4 mph 24.2 mph N/A   Clear
11:55 AM 42.6 °F 35.6 °F 20.1 °F 41% 29.99 in 10.0 mi NW 13.8 mph - N/A   Clear
12:15 PM 43.5 °F 36.4 °F 20.1 °F 39% 29.98 in 10.0 mi NW 15.0 mph - N/A   Clear
12:35 PM 43.7 °F 36.0 °F 18.0 °F 36% 29.98 in 10.0 mi NNW 17.3 mph 20.7 mph N/A   Clear
12:55 PM 44.1 °F 37.7 °F 17.6 °F 35% 29.97 in 10.0 mi NW 12.7 mph 19.6 mph N/A   Clear
1:15 PM 44.2 °F 38.0 °F 17.4 °F 34% 29.95 in 10.0 mi WNW 12.7 mph - N/A   Clear
1:35 PM 45.0 °F 38.9 °F 16.9 °F 32% 29.94 in 10.0 mi NW 12.7 mph - N/A   Clear
1:55 PM 45.1 °F 39.5 °F 16.7 °F 32% 29.92 in 10.0 mi NW 11.5 mph 19.6 mph N/A   Clear
2:15 PM 45.1 °F 39.1 °F 15.8 °F 31% 29.91 in 10.0 mi NNW 12.7 mph 17.3 mph N/A   Clear
2:35 PM 46.4 °F 41.5 °F 15.8 °F 29% 29.90 in 10.0 mi NNW 10.4 mph - N/A   Clear
2:55 PM 45.7 °F 40.6 °F 15.8 °F 30% 29.90 in 10.0 mi NNW 10.4 mph - N/A   Clear
3:15 PM 45.7 °F 42.0 °F 15.6 °F 30% 29.90 in 10.0 mi NNW 6.9 mph - N/A   Clear
3:35 PM 45.7 °F 42.7 °F 15.4 °F 30% 29.90 in 10.0 mi WNW 5.8 mph - N/A   Clear
3:55 PM 45.9 °F 41.7 °F 14.7 °F 29% 29.90 in 10.0 mi WNW 8.1 mph - N/A   Clear
4:15 PM 45.5 °F 43.2 °F 14.0 °F 28% 29.89 in 10.0 mi WNW 4.6 mph - N/A   Clear
4:35 PM 45.5 °F 41.8 °F 12.4 °F 26% 29.89 in 10.0 mi NW 6.9 mph - N/A   Clear
4:55 PM 45.0 °F 43.5 °F 12.9 °F 27% 29.88 in 10.0 mi NW 3.5 mph - N/A   Clear
5:15 PM 44.1 °F - 13.1 °F 29% 29.87 in 10.0 mi Calm Calm - N/A   Clear
5:35 PM 40.3 °F - 12.6 °F 32% 29.87 in 10.0 mi Calm Calm - N/A   Clear
5:55 PM 35.1 °F 31.0 °F 13.1 °F 40% 29.87 in 10.0 mi South 4.6 mph - N/A   Clear
6:15 PM 34.2 °F 30.0 °F 14.2 °F 44% 29.85 in 10.0 mi South 4.6 mph - N/A   Clear
6:35 PM 32.0 °F 27.5 °F 15.8 °F 51% 29.85 in 10.0 mi SSE 4.6 mph - N/A   Clear
6:55 PM 31.5 °F 25.8 °F 17.2 °F 56% 29.85 in 10.0 mi South 5.8 mph - N/A   Clear
7:15 PM 30.2 °F 24.3 °F 17.2 °F 59% 29.85 in 10.0 mi South 5.8 mph - N/A   Clear
7:35 PM 31.3 °F 25.6 °F 18.1 °F 58% 29.83 in 10.0 mi SSE 5.8 mph - N/A   Clear
7:55 PM 30.7 °F 24.1 °F 18.1 °F 60% 29.83 in 10.0 mi ESE 6.9 mph - N/A   Mostly Cloudy
8:15 PM 32.0 °F 27.5 °F 17.6 °F 55% 29.82 in 10.0 mi SSE 4.6 mph - N/A   Overcast
8:35 PM 32.7 °F 25.7 °F 18.0 °F 55% 29.80 in 10.0 mi SE 8.1 mph - N/A   Overcast
8:55 PM 34.7 °F 28.8 °F 17.6 °F 50% 29.80 in 10.0 mi SSE 6.9 mph - N/A   Overcast
9:15 PM 34.7 °F 30.6 °F 18.3 °F 51% 29.81 in 10.0 mi SSE 4.6 mph - N/A   Overcast
9:35 PM 35.8 °F 28.8 °F 18.1 °F 49% 29.80 in 10.0 mi SSE 9.2 mph - N/A   Overcast
9:55 PM 36.7 °F 28.9 °F 16.9 °F 45% 29.80 in 10.0 mi South 11.5 mph - N/A   Overcast
10:15 PM 37.8 °F 31.3 °F 15.8 °F 41% 29.80 in 10.0 mi South 9.2 mph 17.3 mph N/A   Overcast
10:35 PM 37.8 °F 31.8 °F 17.2 °F 43% 29.80 in 10.0 mi South 8.1 mph - N/A   Overcast
10:55 PM 37.4 °F 31.4 °F 21.4 °F 52% 29.78 in 10.0 mi SSE 8.1 mph - N/A Rain Light Rain
11:15 PM 37.4 °F 30.8 °F 19.4 °F 48% 29.78 in 10.0 mi SE 9.2 mph - N/A   Overcast
11:35 PM 36.9 °F 30.7 °F 18.9 °F 48% 29.77 in 10.0 mi SSE 8.1 mph - N/A   Overcast
11:55 PM 37.8 °F 29.4 °F 20.8 °F 51% 29.78 in 10.0 mi SSW 13.8 mph - N/A   Overcast